createdAt,value
2019-03-24T00:00:54.496Z,8.90
2019-03-24T00:03:24.103Z,8.90
2019-03-24T00:05:53.694Z,8.90
2019-03-24T00:08:23.439Z,8.80
2019-03-24T00:10:53.318Z,8.80
2019-03-24T00:13:24.880Z,8.80
2019-03-24T00:15:54.331Z,8.80
2019-03-24T00:18:24.023Z,8.70
2019-03-24T00:20:54.685Z,8.70
2019-03-24T00:23:25.414Z,8.70
2019-03-24T00:25:56.064Z,8.70
2019-03-24T00:28:26.744Z,8.70
2019-03-24T00:31:01.982Z,8.60
2019-03-24T00:33:31.581Z,8.60
2019-03-24T00:36:01.210Z,8.60
2019-03-24T00:38:31.191Z,8.60
2019-03-24T00:41:00.784Z,8.60
2019-03-24T00:43:30.405Z,8.60
2019-03-24T00:46:00.317Z,8.50
2019-03-24T00:48:29.925Z,8.50
2019-03-24T00:50:59.942Z,8.50
2019-03-24T00:53:29.599Z,8.50
2019-03-24T00:55:59.237Z,8.50
2019-03-24T00:58:28.888Z,8.50
2019-03-24T01:00:58.496Z,8.40
2019-03-24T01:03:28.362Z,8.40
2019-03-24T01:05:58.032Z,8.40
2019-03-24T01:08:28.022Z,8.40
2019-03-24T01:10:57.649Z,8.40
2019-03-24T01:13:27.266Z,8.40
2019-03-24T01:15:56.877Z,8.40
2019-03-24T01:18:26.475Z,8.40
2019-03-24T01:20:56.407Z,8.30
2019-03-24T01:23:25.983Z,8.30
2019-03-24T01:25:55.764Z,8.30
2019-03-24T01:28:25.366Z,8.30
2019-03-24T01:30:54.989Z,8.30
2019-03-24T01:33:24.598Z,8.30
2019-03-24T01:35:54.187Z,8.30
2019-03-24T01:38:23.792Z,8.30
2019-03-24T01:40:53.560Z,8.20
2019-03-24T01:43:23.326Z,8.20
2019-03-24T01:45:58.430Z,8.20
2019-03-24T01:48:24.263Z,8.20
2019-03-24T01:50:53.952Z,8.20
2019-03-24T01:53:23.534Z,8.20
2019-03-24T01:55:53.129Z,8.10
2019-03-24T01:58:22.808Z,8.10
2019-03-24T02:00:52.763Z,8.10
2019-03-24T02:03:22.369Z,8.10
2019-03-24T02:05:51.979Z,8.10
2019-03-24T02:08:21.580Z,8.10
2019-03-24T02:10:51.187Z,8.10
2019-03-24T02:13:20.807Z,8.10
2019-03-24T02:15:50.410Z,8.10
2019-03-24T02:18:20.081Z,8.10
2019-03-24T02:20:49.824Z,8.10
2019-03-24T02:23:19.456Z,8.00
2019-03-24T02:25:49.336Z,8.00
2019-03-24T02:28:18.952Z,8.00
2019-03-24T02:30:48.641Z,8.00
2019-03-24T02:33:18.243Z,8.00
2019-03-24T02:35:47.950Z,8.00
2019-03-24T02:38:17.621Z,8.00
2019-03-24T02:40:47.303Z,8.00
2019-03-24T02:43:17.020Z,8.00
2019-03-24T02:45:46.908Z,7.90
2019-03-24T02:48:16.535Z,7.90
2019-03-24T02:50:46.132Z,7.90
2019-03-24T02:53:15.739Z,7.80
2019-03-24T02:55:45.372Z,7.80
2019-03-24T02:58:15.056Z,7.80
2019-03-24T03:00:44.730Z,7.80
2019-03-24T03:03:14.399Z,7.70
2019-03-24T03:05:44.011Z,7.70
2019-03-24T03:08:13.733Z,7.70
2019-03-24T03:10:43.324Z,7.70
2019-03-24T03:13:13.040Z,7.70
2019-03-24T03:15:42.656Z,7.60
2019-03-24T03:18:12.253Z,7.60
2019-03-24T03:20:42.244Z,7.60
2019-03-24T03:23:11.878Z,7.60
2019-03-24T03:25:41.756Z,7.60
2019-03-24T03:28:11.346Z,7.60
2019-03-24T03:30:41.224Z,7.50
2019-03-24T03:33:10.834Z,7.50
2019-03-24T03:35:40.473Z,7.50
2019-03-24T03:38:10.055Z,7.50
2019-03-24T03:40:39.730Z,7.40
2019-03-24T03:43:09.484Z,7.40
2019-03-24T03:45:39.558Z,7.40
2019-03-24T03:48:09.314Z,7.40
2019-03-24T03:50:39.203Z,7.30
2019-03-24T03:53:08.802Z,7.30
2019-03-24T03:55:38.401Z,7.30
2019-03-24T03:58:08.184Z,7.30
2019-03-24T04:00:38.455Z,7.30
2019-03-24T04:03:08.877Z,7.20
2019-03-24T04:05:38.491Z,7.20
2019-03-24T04:08:08.437Z,7.10
2019-03-24T04:10:38.377Z,7.10
2019-03-24T04:13:08.327Z,7.10
2019-03-24T04:15:38.062Z,7.10
2019-03-24T04:18:07.658Z,7.00
2019-03-24T04:20:37.269Z,7.00
2019-03-24T04:23:06.867Z,7.00
2019-03-24T04:25:36.540Z,6.90
2019-03-24T04:33:55.829Z,6.80
2019-03-24T04:36:25.425Z,6.80
2019-03-24T04:38:55.015Z,6.70
2019-03-24T04:41:24.721Z,6.70
2019-03-24T04:43:54.391Z,6.70
2019-03-24T04:46:24.017Z,6.70
2019-03-24T04:48:53.611Z,6.60
2019-03-24T04:51:23.471Z,6.60
2019-03-24T04:53:53.438Z,6.60
2019-03-24T04:56:23.100Z,6.60
2019-03-24T04:58:52.694Z,6.60
2019-03-24T05:01:22.348Z,6.50
2019-03-24T05:03:51.956Z,6.50
2019-03-24T05:06:21.991Z,6.50
2019-03-24T05:08:52.336Z,6.40
2019-03-24T05:11:22.326Z,6.40
2019-03-24T05:13:51.923Z,6.40
2019-03-24T05:16:21.538Z,6.30
2019-03-24T05:18:51.234Z,6.30
2019-03-24T05:21:20.820Z,6.30
2019-03-24T05:23:50.464Z,6.20
2019-03-24T05:26:20.179Z,6.20
2019-03-24T05:28:49.765Z,6.20
2019-03-24T05:31:19.494Z,6.20
2019-03-24T05:33:49.398Z,6.20
2019-03-24T05:36:19.062Z,6.20
2019-03-24T05:38:48.676Z,6.10
2019-03-24T05:41:18.282Z,6.10
2019-03-24T05:43:47.877Z,6.10
2019-03-24T05:46:17.494Z,6.10
2019-03-24T05:48:47.088Z,6.00
2019-03-24T05:51:16.771Z,6.00
2019-03-24T05:53:46.464Z,6.00
2019-03-24T05:56:16.060Z,6.00
2019-03-24T05:58:45.757Z,6.00
2019-03-24T06:01:15.384Z,6.00
2019-03-24T06:03:45.086Z,6.00
2019-03-24T06:06:14.690Z,6.00
2019-03-24T06:08:44.413Z,6.00
2019-03-24T06:11:14.019Z,6.00
2019-03-24T06:13:43.708Z,6.00
2019-03-24T06:16:13.326Z,6.00
2019-03-24T06:18:42.932Z,6.10
2019-03-24T06:21:12.789Z,6.10
2019-03-24T06:23:42.679Z,6.20
2019-03-24T06:26:12.295Z,6.20
2019-03-24T06:28:41.887Z,6.20
2019-03-24T06:31:11.498Z,6.30
2019-03-24T06:33:41.090Z,6.30
2019-03-24T06:36:10.708Z,6.40
2019-03-24T06:38:40.603Z,6.40
2019-03-24T06:41:10.218Z,6.50
2019-03-24T06:43:39.888Z,6.60
2019-03-24T06:46:09.661Z,6.70
2019-03-24T06:48:39.355Z,6.70
2019-03-24T06:51:08.953Z,6.80
2019-03-24T06:53:38.573Z,6.90
2019-03-24T06:56:08.185Z,7.00
2019-03-24T06:58:37.864Z,7.10
2019-03-24T07:01:07.487Z,7.20
2019-03-24T07:03:37.095Z,7.30
2019-03-24T07:06:06.785Z,7.50
2019-03-24T07:08:36.404Z,7.60
2019-03-24T07:11:13.218Z,7.70
2019-03-24T07:13:37.303Z,7.80
2019-03-24T07:16:06.905Z,7.90
2019-03-24T07:18:36.595Z,8.00
2019-03-24T07:21:06.257Z,8.20
2019-03-24T07:23:36.134Z,8.30
2019-03-24T07:26:05.728Z,8.40
2019-03-24T07:28:35.328Z,8.60
2019-03-24T07:31:05.262Z,8.70
2019-03-24T07:33:34.862Z,8.80
2019-03-24T07:36:05.503Z,9.00
2019-03-24T07:38:35.114Z,9.20
2019-03-24T07:41:04.854Z,9.30
2019-03-24T07:43:34.441Z,9.40
2019-03-24T07:46:04.037Z,9.60
2019-03-24T07:48:34.624Z,9.70
2019-03-24T07:51:04.288Z,9.80
2019-03-24T07:53:33.909Z,10.00
2019-03-24T07:56:03.518Z,10.10
2019-03-24T07:58:33.117Z,10.20
2019-03-24T08:01:02.739Z,10.40
2019-03-24T08:03:32.360Z,10.50
2019-03-24T08:06:01.977Z,10.60
2019-03-24T08:08:31.595Z,10.70
2019-03-24T08:11:01.195Z,10.80
2019-03-24T08:13:30.821Z,10.90
2019-03-24T08:16:00.419Z,11.00
2019-03-24T08:18:30.412Z,11.10
2019-03-24T08:20:59.975Z,11.10
2019-03-24T08:23:29.855Z,11.20
2019-03-24T08:25:59.476Z,11.30
2019-03-24T08:28:29.093Z,11.40
2019-03-24T08:30:58.705Z,11.40
2019-03-24T08:33:28.361Z,11.50
2019-03-24T08:35:57.911Z,11.60
2019-03-24T08:38:27.550Z,11.70
2019-03-24T08:40:57.409Z,11.80
2019-03-24T08:43:27.484Z,11.90
2019-03-24T08:46:03.042Z,12.00
2019-03-24T08:48:40.333Z,12.00
2019-03-24T08:51:04.072Z,12.10
2019-03-24T08:53:33.960Z,12.20
2019-03-24T08:56:03.583Z,12.30
2019-03-24T08:58:33.171Z,12.40
2019-03-24T09:01:02.880Z,12.50
2019-03-24T09:03:32.800Z,12.50
2019-03-24T09:06:02.716Z,12.60
2019-03-24T09:08:32.352Z,12.70
2019-03-24T09:11:02.218Z,12.80
2019-03-24T09:13:31.839Z,12.90
2019-03-24T09:16:01.725Z,12.90
2019-03-24T09:18:31.339Z,13.00
2019-03-24T09:21:00.974Z,13.00
2019-03-24T09:23:30.591Z,13.00
2019-03-24T09:26:00.213Z,13.00
2019-03-24T09:28:30.128Z,13.10
2019-03-24T09:31:00.006Z,13.10
2019-03-24T09:33:29.608Z,13.20
2019-03-24T09:35:59.226Z,13.30
2019-03-24T09:38:29.106Z,13.30
2019-03-24T09:40:58.775Z,13.30
2019-03-24T09:43:28.661Z,13.40
2019-03-24T09:45:58.283Z,13.40
2019-03-24T09:48:28.555Z,13.40
2019-03-24T09:50:58.510Z,13.40
2019-03-24T09:53:28.481Z,13.40
2019-03-24T09:55:58.114Z,13.40
2019-03-24T09:58:27.816Z,13.50
2019-03-24T10:00:57.692Z,13.50
2019-03-24T10:03:27.304Z,13.50
2019-03-24T10:05:58.205Z,13.50
2019-03-24T10:08:27.796Z,13.60
2019-03-24T10:10:57.492Z,13.60
2019-03-24T10:13:27.209Z,13.70
2019-03-24T10:15:56.895Z,13.70
2019-03-24T10:18:28.773Z,13.80
2019-03-24T10:20:58.380Z,13.80
2019-03-24T10:23:28.364Z,13.90
2019-03-24T10:25:57.969Z,13.90
2019-03-24T10:28:27.610Z,14.00
2019-03-24T10:30:57.245Z,14.00
2019-03-24T10:33:26.886Z,14.10
2019-03-24T10:35:56.502Z,14.10
2019-03-24T10:38:26.128Z,14.10
2019-03-24T10:40:55.738Z,14.10
2019-03-24T10:43:25.380Z,14.20
2019-03-24T10:45:54.986Z,14.30
2019-03-24T10:48:33.322Z,14.30
2019-03-24T10:50:56.250Z,14.40
2019-03-24T10:53:27.394Z,14.40
2019-03-24T10:55:57.079Z,14.50
2019-03-24T10:58:26.710Z,14.50
2019-03-24T11:00:56.594Z,14.50
2019-03-24T11:03:26.295Z,14.60
2019-03-24T11:05:55.976Z,14.60
2019-03-24T11:08:25.591Z,14.70
2019-03-24T11:10:55.203Z,14.70
2019-03-24T11:13:24.838Z,14.70
2019-03-24T11:15:54.713Z,14.70
2019-03-24T11:18:24.340Z,14.70
2019-03-24T11:20:53.944Z,14.70
2019-03-24T11:23:23.588Z,14.70
2019-03-24T11:25:53.561Z,14.70
2019-03-24T11:28:23.239Z,14.70
2019-03-24T11:30:52.831Z,14.60
2019-03-24T11:33:22.466Z,14.60
2019-03-24T11:35:52.103Z,14.50
2019-03-24T11:38:21.722Z,14.50
2019-03-24T11:40:52.304Z,14.50
2019-03-24T11:43:21.917Z,14.50
2019-03-24T11:45:51.593Z,14.40
2019-03-24T11:48:22.951Z,14.40
2019-03-24T11:50:52.882Z,14.30
2019-03-24T11:53:22.516Z,14.20
2019-03-24T11:55:52.158Z,14.10
2019-03-24T11:58:21.773Z,14.10
2019-03-24T12:00:51.481Z,14.00
2019-03-24T12:03:21.085Z,13.90
2019-03-24T12:05:50.799Z,13.90
2019-03-24T12:08:20.442Z,13.90
2019-03-24T12:10:50.064Z,13.80
2019-03-24T12:13:19.671Z,13.80
2019-03-24T12:15:49.509Z,13.80
2019-03-24T12:18:19.366Z,13.80
2019-03-24T12:20:48.993Z,13.80
2019-03-24T12:23:20.949Z,13.70
2019-03-24T12:25:50.012Z,13.70
2019-03-24T12:28:19.900Z,13.70
2019-03-24T12:30:49.626Z,13.60
2019-03-24T12:33:19.214Z,13.60
2019-03-24T12:35:48.850Z,13.50
2019-03-24T12:38:19.649Z,13.50
2019-03-24T12:40:49.302Z,13.50
2019-03-24T12:43:19.969Z,13.50
2019-03-24T12:45:50.026Z,13.50
2019-03-24T12:48:19.793Z,13.40
2019-03-24T12:50:49.461Z,13.40
2019-03-24T12:53:19.093Z,13.50
2019-03-24T12:55:49.000Z,13.40
2019-03-24T12:58:18.872Z,13.40
2019-03-24T13:00:48.504Z,13.40
2019-03-24T13:03:18.112Z,13.40
2019-03-24T13:05:48.046Z,13.40
2019-03-24T13:08:18.364Z,13.30
2019-03-24T13:10:48.174Z,13.30
2019-03-24T13:13:17.945Z,13.30
2019-03-24T13:15:47.722Z,13.30
2019-03-24T13:18:17.404Z,13.30
2019-03-24T13:20:47.035Z,13.30
2019-03-24T13:23:16.791Z,13.30
2019-03-24T13:25:46.455Z,13.20
2019-03-24T13:28:16.170Z,13.30
2019-03-24T13:30:45.858Z,13.20
2019-03-24T13:33:15.647Z,13.20
2019-03-24T13:35:45.287Z,13.20
2019-03-24T13:38:15.010Z,13.30
2019-03-24T13:40:44.619Z,13.30
2019-03-24T13:43:14.228Z,13.30
2019-03-24T13:45:43.932Z,13.30
2019-03-24T13:48:13.578Z,13.30
2019-03-24T13:50:43.201Z,13.30
2019-03-24T13:53:12.922Z,13.20
2019-03-24T13:55:45.427Z,13.20
2019-03-24T13:58:15.381Z,13.20
2019-03-24T14:00:45.252Z,13.30
2019-03-24T14:03:14.903Z,13.30
2019-03-24T14:05:44.515Z,13.30
2019-03-24T14:08:18.540Z,13.30
2019-03-24T14:10:48.405Z,13.30
2019-03-24T14:13:18.364Z,13.40
2019-03-24T14:15:50.438Z,13.40
2019-03-24T14:18:20.040Z,13.40
2019-03-24T14:20:49.679Z,13.40
2019-03-24T14:23:19.322Z,13.40
2019-03-24T14:25:49.253Z,13.50
2019-03-24T14:28:18.907Z,13.50
2019-03-24T14:30:49.773Z,13.50
2019-03-24T14:33:19.883Z,13.50
2019-03-24T14:35:50.780Z,13.50
2019-03-24T14:38:21.273Z,13.60
2019-03-24T14:40:51.283Z,13.60
2019-03-24T14:43:20.968Z,13.70
2019-03-24T14:45:50.582Z,13.70
2019-03-24T14:48:20.214Z,13.80
2019-03-24T14:50:54.391Z,13.80
2019-03-24T14:53:21.185Z,13.80
2019-03-24T14:55:50.815Z,13.90
2019-03-24T14:58:20.655Z,13.90
2019-03-24T15:00:50.594Z,14.00
2019-03-24T15:03:20.558Z,14.00
2019-03-24T15:05:50.245Z,14.00
2019-03-24T15:08:19.866Z,14.10
2019-03-24T15:10:49.510Z,14.10
2019-03-24T15:13:19.393Z,14.20
2019-03-24T15:15:49.021Z,14.20
2019-03-24T15:18:18.657Z,14.30
2019-03-24T15:20:48.262Z,14.30
2019-03-24T15:23:17.879Z,14.40
2019-03-24T15:25:48.414Z,14.40
2019-03-24T15:28:18.016Z,14.50
2019-03-24T15:30:47.632Z,14.50
2019-03-24T15:33:17.263Z,14.50
2019-03-24T15:35:47.150Z,14.50
2019-03-24T15:38:16.793Z,14.50
2019-03-24T15:40:49.474Z,14.50
2019-03-24T15:43:18.048Z,14.60
2019-03-24T15:45:47.731Z,14.60
2019-03-24T15:48:17.371Z,14.70
2019-03-24T15:50:47.134Z,14.70
2019-03-24T15:53:17.012Z,14.80
2019-03-24T15:55:46.629Z,14.80
2019-03-24T15:58:16.515Z,14.90
2019-03-24T16:00:48.371Z,14.90
2019-03-24T16:03:18.111Z,14.90
2019-03-24T16:05:47.821Z,14.90
2019-03-24T16:08:17.501Z,14.90
2019-03-24T16:10:47.143Z,14.90
2019-03-24T16:13:16.937Z,14.90
2019-03-24T16:15:46.566Z,14.90
2019-03-24T16:18:16.274Z,14.90
2019-03-24T16:20:45.884Z,14.90
2019-03-24T16:23:15.509Z,14.90
2019-03-24T16:25:45.128Z,14.90
2019-03-24T16:28:14.738Z,14.90
2019-03-24T16:30:44.423Z,14.90
2019-03-24T16:33:14.066Z,14.90
2019-03-24T16:35:43.695Z,14.90
2019-03-24T16:38:13.292Z,14.90
2019-03-24T16:40:42.913Z,14.90
2019-03-24T16:43:12.557Z,14.90
2019-03-24T16:45:42.171Z,14.90
2019-03-24T16:48:11.870Z,14.90
2019-03-24T16:50:41.489Z,14.80
2019-03-24T16:53:11.300Z,14.80
2019-03-24T16:55:41.235Z,14.70
2019-03-24T16:58:11.149Z,14.60
2019-03-24T17:00:40.798Z,14.60
2019-03-24T17:03:10.396Z,14.60
2019-03-24T17:05:39.995Z,14.50
2019-03-24T17:08:09.624Z,14.40
2019-03-24T17:10:39.325Z,14.40
2019-03-24T17:13:10.916Z,14.30
2019-03-24T17:15:40.847Z,14.20
2019-03-24T17:18:10.472Z,14.10
2019-03-24T17:20:40.088Z,14.10
2019-03-24T17:23:09.716Z,14.00
2019-03-24T17:25:39.603Z,13.90
2019-03-24T17:28:09.204Z,13.90
2019-03-24T17:30:39.125Z,13.80
2019-03-24T17:33:08.763Z,13.70
2019-03-24T17:35:38.377Z,13.60
2019-03-24T17:38:08.144Z,13.60
2019-03-24T17:40:39.131Z,13.50
2019-03-24T17:43:08.873Z,13.40
2019-03-24T17:45:38.461Z,13.30
2019-03-24T17:48:08.154Z,13.30
2019-03-24T17:50:37.775Z,13.20
2019-03-24T17:53:07.605Z,13.10
2019-03-24T17:55:37.242Z,13.00
2019-03-24T17:58:06.917Z,12.90
2019-03-24T18:00:46.373Z,12.80
2019-03-24T18:03:16.159Z,12.80
2019-03-24T18:05:45.902Z,12.70
2019-03-24T18:08:16.100Z,12.60
2019-03-24T18:10:45.696Z,12.50
2019-03-24T18:13:15.337Z,12.40
2019-03-24T18:15:44.950Z,12.40
2019-03-24T18:18:14.545Z,12.30
2019-03-24T18:20:44.164Z,12.20
2019-03-24T18:23:13.897Z,12.10
2019-03-24T18:25:43.504Z,12.00
2019-03-24T18:28:16.135Z,12.00
2019-03-24T18:30:46.053Z,11.90
2019-03-24T18:33:15.966Z,11.80
2019-03-24T18:35:45.736Z,11.80
2019-03-24T18:38:15.396Z,11.80
2019-03-24T18:40:45.011Z,11.70
2019-03-24T18:43:14.647Z,11.70
2019-03-24T18:45:44.377Z,11.60
2019-03-24T18:48:14.337Z,11.50
2019-03-24T18:50:43.938Z,11.50
2019-03-24T18:53:13.561Z,11.50
2019-03-24T18:55:43.172Z,11.40
2019-03-24T18:58:12.868Z,11.40
2019-03-24T19:00:42.487Z,11.30
2019-03-24T19:03:12.212Z,11.30
2019-03-24T19:05:41.877Z,11.30
2019-03-24T19:08:11.499Z,11.20
2019-03-24T19:10:41.109Z,11.20
2019-03-24T19:13:10.718Z,11.10
2019-03-24T19:15:40.356Z,11.10
2019-03-24T19:18:10.035Z,11.00
2019-03-24T19:20:39.645Z,11.00
2019-03-24T19:23:09.282Z,11.00
2019-03-24T19:25:38.871Z,10.90
2019-03-24T19:28:08.777Z,10.90
2019-03-24T19:30:40.395Z,10.90
2019-03-24T19:33:10.290Z,10.80
2019-03-24T19:35:40.155Z,10.80
2019-03-24T19:38:09.892Z,10.80
2019-03-24T19:40:39.961Z,10.70
2019-03-24T19:43:09.572Z,10.70
2019-03-24T19:45:39.177Z,10.70
2019-03-24T19:48:10.494Z,10.60
2019-03-24T19:50:40.372Z,10.60
2019-03-24T19:53:11.177Z,10.60
2019-03-24T19:55:41.128Z,10.60
2019-03-24T19:58:10.734Z,10.50
2019-03-24T20:00:40.907Z,10.50
2019-03-24T20:03:11.623Z,10.50
2019-03-24T20:05:41.344Z,10.50
2019-03-24T20:08:11.384Z,10.50
2019-03-24T20:10:41.202Z,10.50
2019-03-24T20:13:11.203Z,10.40
2019-03-24T20:15:41.169Z,10.40
2019-03-24T20:18:11.057Z,10.40
2019-03-24T20:20:40.719Z,10.40
2019-03-24T20:23:10.397Z,10.40
2019-03-24T20:25:40.121Z,10.40
2019-03-24T20:28:09.722Z,10.40
2019-03-24T20:30:39.802Z,10.40
2019-03-24T20:33:10.969Z,10.40
2019-03-24T20:35:40.674Z,10.40
2019-03-24T20:38:10.350Z,10.40
2019-03-24T20:40:41.598Z,10.40
2019-03-24T20:43:11.274Z,10.30
2019-03-24T20:45:40.939Z,10.30
2019-03-24T20:48:10.540Z,10.40
2019-03-24T20:50:40.476Z,10.30
2019-03-24T20:53:18.162Z,10.30
2019-03-24T20:55:42.199Z,10.40
2019-03-24T20:58:11.815Z,10.30
2019-03-24T21:00:41.663Z,10.30
2019-03-24T21:03:11.511Z,10.30
2019-03-24T21:05:41.601Z,10.30
2019-03-24T21:08:11.532Z,10.30
2019-03-24T21:10:41.195Z,10.30
2019-03-24T21:13:10.837Z,10.30
2019-03-24T21:15:40.878Z,10.30
2019-03-24T21:18:10.522Z,10.30
2019-03-24T21:20:40.108Z,10.20
2019-03-24T21:23:10.009Z,10.20
2019-03-24T21:25:39.609Z,10.20
2019-03-24T21:28:09.274Z,10.20
2019-03-24T21:30:41.241Z,10.20
2019-03-24T21:33:10.911Z,10.20
2019-03-24T21:35:40.608Z,10.20
2019-03-24T21:38:10.247Z,10.20
2019-03-24T21:40:39.817Z,10.20
2019-03-24T21:43:09.524Z,10.20
2019-03-24T21:45:39.144Z,10.30
2019-03-24T21:48:08.821Z,10.30
2019-03-24T21:50:38.487Z,10.30
2019-03-24T21:53:08.093Z,10.30
2019-03-24T21:55:37.984Z,10.30
2019-03-24T21:58:07.588Z,10.30
2019-03-24T22:00:37.938Z,10.30
2019-03-24T22:03:08.120Z,10.30
2019-03-24T22:05:38.085Z,10.30
2019-03-24T22:08:07.867Z,10.30
2019-03-24T22:10:37.819Z,10.30
2019-03-24T22:13:07.720Z,10.30
2019-03-24T22:15:37.435Z,10.30
2019-03-24T22:18:08.640Z,10.30
2019-03-24T22:20:48.449Z,10.40
2019-03-24T22:23:09.557Z,10.40
2019-03-24T22:25:39.197Z,10.40
2019-03-24T22:28:22.475Z,10.40
2019-03-24T22:30:51.394Z,10.50
2019-03-24T22:33:20.947Z,10.50
2019-03-24T22:35:50.894Z,10.50
2019-03-24T22:38:20.617Z,10.60
2019-03-24T22:40:50.286Z,10.60
2019-03-24T22:43:19.904Z,10.70
2019-03-24T22:45:49.535Z,10.70
2019-03-24T22:48:19.140Z,10.80
2019-03-24T22:50:49.057Z,10.80
2019-03-24T22:53:18.670Z,10.90
2019-03-24T22:55:48.674Z,10.90
2019-03-24T22:58:18.281Z,11.00
2019-03-24T23:00:49.921Z,11.10
2019-03-24T23:03:19.537Z,11.10
2019-03-24T23:05:49.215Z,11.20
2019-03-24T23:08:18.852Z,11.20
2019-03-24T23:10:48.530Z,11.40
2019-03-24T23:13:18.238Z,11.40
2019-03-24T23:15:51.618Z,11.50
2019-03-24T23:18:21.513Z,11.50
2019-03-24T23:20:51.147Z,11.60
2019-03-24T23:23:20.955Z,11.70
2019-03-24T23:25:50.986Z,11.70
2019-03-24T23:28:20.872Z,11.80
2019-03-24T23:30:50.580Z,11.90
2019-03-24T23:33:20.251Z,11.90
2019-03-24T23:35:49.938Z,12.00
2019-03-24T23:38:19.653Z,12.00
2019-03-24T23:40:49.250Z,12.00
2019-03-24T23:43:18.954Z,12.10
2019-03-24T23:45:48.647Z,12.10
2019-03-24T23:48:18.247Z,12.10
2019-03-24T23:50:48.269Z,12.20
2019-03-24T23:53:18.140Z,12.20
2019-03-24T23:55:47.943Z,12.20
2019-03-24T23:58:17.666Z,12.30
